createdAt,value
2022-11-30T00:01:45.065Z,98382.19
2022-11-30T00:04:14.152Z,98378.94
2022-11-30T00:06:43.817Z,98380.31
2022-11-30T00:09:13.854Z,98369.72
2022-11-30T00:11:42.899Z,98380.97
2022-11-30T00:14:11.803Z,98378.38
2022-11-30T00:16:41.745Z,98373.50
2022-11-30T00:19:10.604Z,98380.16
2022-11-30T00:21:39.602Z,98380.41
2022-11-30T00:24:09.410Z,98380.41
2022-11-30T00:26:38.233Z,98378.09
2022-11-30T00:29:08.306Z,98374.44
2022-11-30T00:31:37.197Z,98363.97
2022-11-30T00:34:06.479Z,98369.56
2022-11-30T00:36:35.356Z,98370.78
2022-11-30T00:39:05.306Z,98371.59
2022-11-30T00:41:35.144Z,98377.44
2022-11-30T00:44:04.101Z,98378.94
2022-11-30T00:46:33.051Z,98380.53
2022-11-30T00:49:01.952Z,98393.28
2022-11-30T00:51:30.820Z,98389.66
2022-11-30T00:53:59.631Z,98390.34
2022-11-30T00:56:29.070Z,98392.22
2022-11-30T00:58:57.964Z,98390.06
2022-11-30T01:01:27.849Z,98391.84
2022-11-30T01:03:57.146Z,98390.91
2022-11-30T01:06:29.067Z,98390.50
2022-11-30T01:08:58.925Z,98394.16
2022-11-30T01:11:30.119Z,98393.09
2022-11-30T01:14:02.300Z,98383.56
2022-11-30T01:16:34.267Z,98392.16
2022-11-30T01:19:04.222Z,98379.25
2022-11-30T01:21:33.183Z,98370.53
2022-11-30T01:24:02.127Z,98375.69
2022-11-30T01:26:31.108Z,98383.19
2022-11-30T01:28:59.996Z,98381.16
2022-11-30T01:31:28.939Z,98386.06
2022-11-30T01:33:57.896Z,98387.69
2022-11-30T01:36:27.773Z,98391.88
2022-11-30T01:38:58.713Z,98401.41
2022-11-30T01:41:33.496Z,98392.03
2022-11-30T01:44:08.747Z,98399.91
2022-11-30T01:46:53.678Z,98400.34
2022-11-30T01:49:30.895Z,98394.19
2022-11-30T01:52:05.341Z,98394.19
2022-11-30T01:54:39.626Z,98379.41
2022-11-30T01:57:30.555Z,98376.53
2022-11-30T02:00:03.648Z,98380.75
2022-11-30T02:03:11.965Z,98377.50
2022-11-30T02:05:42.365Z,98369.50
2022-11-30T02:08:12.300Z,98379.28
2022-11-30T02:10:44.651Z,98376.41
2022-11-30T02:13:33.416Z,98376.41
2022-11-30T02:16:26.371Z,98374.78
2022-11-30T02:18:55.855Z,98380.34
2022-11-30T02:21:43.029Z,98382.53
2022-11-30T02:24:40.058Z,98379.41
2022-11-30T02:27:33.351Z,98377.63
2022-11-30T02:30:09.637Z,98374.78
2022-11-30T02:32:48.241Z,98390.00
2022-11-30T02:35:22.252Z,98389.06
2022-11-30T02:37:53.960Z,98389.06
2022-11-30T02:40:23.548Z,98381.03
2022-11-30T02:42:54.344Z,98380.63
2022-11-30T02:46:01.812Z,98372.88
2022-11-30T02:48:49.616Z,98370.00
2022-11-30T02:51:26.173Z,98369.06
2022-11-30T02:53:55.897Z,98366.06
2022-11-30T02:56:25.865Z,98370.16
2022-11-30T02:58:55.450Z,98364.72
2022-11-30T03:01:26.773Z,98369.22
2022-11-30T03:03:56.092Z,98364.72
2022-11-30T03:06:25.088Z,98366.78
2022-11-30T03:08:53.932Z,98348.84
2022-11-30T03:11:22.747Z,98360.25
2022-11-30T03:13:51.634Z,98350.50
2022-11-30T03:16:20.650Z,98341.38
2022-11-30T03:18:49.544Z,98343.81
2022-11-30T03:21:18.743Z,98345.03
2022-11-30T03:23:48.095Z,98346.38
2022-11-30T03:26:17.073Z,98340.41
2022-11-30T03:28:46.153Z,98347.47
2022-11-30T03:31:15.320Z,98332.66
2022-11-30T03:33:44.257Z,98329.94
2022-11-30T03:36:14.395Z,98335.75
2022-11-30T03:38:44.554Z,98339.94
2022-11-30T03:41:16.898Z,98330.31
2022-11-30T03:43:47.324Z,98331.09
2022-11-30T03:46:16.507Z,98330.56
2022-11-30T03:48:46.054Z,98334.59
2022-11-30T03:51:15.679Z,98323.03
2022-11-30T03:53:48.128Z,98329.94
2022-11-30T03:56:17.522Z,98319.91
2022-11-30T03:58:46.420Z,98304.03
2022-11-30T04:01:20.028Z,98320.22
2022-11-30T04:03:51.991Z,98315.28
2022-11-30T04:06:22.105Z,98305.41
2022-11-30T04:08:50.971Z,98310.25
2022-11-30T04:11:19.887Z,98302.91
2022-11-30T04:13:48.945Z,98300.91
2022-11-30T04:16:17.878Z,98293.53
2022-11-30T04:18:49.142Z,98302.22
2022-11-30T04:21:18.913Z,98290.03
2022-11-30T04:23:47.785Z,98288.38
2022-11-30T04:26:18.460Z,98290.22
2022-11-30T04:28:47.410Z,98273.00
2022-11-30T04:31:16.378Z,98285.78
2022-11-30T04:33:45.255Z,98278.78
2022-11-30T04:36:20.334Z,98275.44
2022-11-30T04:38:49.731Z,98273.16
2022-11-30T04:41:18.551Z,98268.59
2022-11-30T04:43:47.463Z,98274.72
2022-11-30T04:46:16.349Z,98262.53
2022-11-30T04:48:45.420Z,98264.13
2022-11-30T04:51:14.296Z,98277.38
2022-11-30T04:53:43.176Z,98271.91
2022-11-30T04:56:13.203Z,98275.81
2022-11-30T04:58:42.172Z,98268.53
2022-11-30T05:01:12.246Z,98269.97
2022-11-30T05:03:42.495Z,98274.78
2022-11-30T05:06:11.402Z,98269.03
2022-11-30T05:08:40.201Z,98267.50
2022-11-30T05:11:09.029Z,98261.47
2022-11-30T05:13:37.814Z,98264.00
2022-11-30T05:16:07.268Z,98244.19
2022-11-30T05:18:36.469Z,98249.22
2022-11-30T05:21:05.423Z,98259.81
2022-11-30T05:23:34.272Z,98255.16
2022-11-30T05:26:04.105Z,98252.63
2022-11-30T05:28:32.995Z,98250.25
2022-11-30T05:31:06.275Z,98253.56
2022-11-30T05:33:35.776Z,98263.34
2022-11-30T05:36:10.472Z,98249.19
2022-11-30T05:38:40.563Z,98241.56
2022-11-30T05:41:10.903Z,98238.75
2022-11-30T05:43:40.058Z,98238.53
2022-11-30T05:46:10.524Z,98236.38
2022-11-30T05:48:40.502Z,98230.81
2022-11-30T05:51:14.113Z,98235.69
2022-11-30T05:53:44.130Z,98238.28
2022-11-30T05:56:16.617Z,98238.84
2022-11-30T05:58:46.449Z,98237.38
2022-11-30T06:01:22.250Z,98222.72
2022-11-30T06:03:52.583Z,98236.94
2022-11-30T06:06:22.246Z,98228.50
2022-11-30T06:08:51.475Z,98231.75
2022-11-30T06:11:20.451Z,98223.19
2022-11-30T06:13:49.341Z,98224.53
2022-11-30T06:16:18.362Z,98217.63
2022-11-30T06:18:47.211Z,98214.03
2022-11-30T06:21:20.995Z,98211.56
2022-11-30T06:23:53.617Z,98192.63
2022-11-30T06:26:23.140Z,98208.63
2022-11-30T06:28:52.008Z,98215.47
2022-11-30T06:31:21.001Z,98205.22
2022-11-30T06:33:50.341Z,98211.06
2022-11-30T06:36:26.555Z,98208.31
2022-11-30T06:38:56.947Z,98207.13
2022-11-30T06:41:26.798Z,98202.78
2022-11-30T06:43:56.181Z,98197.09
2022-11-30T06:46:25.627Z,98181.78
2022-11-30T06:48:54.784Z,98192.06
2022-11-30T06:51:23.732Z,98188.38
2022-11-30T06:53:52.553Z,98186.13
2022-11-30T06:56:21.429Z,98187.63
2022-11-30T06:58:51.151Z,98183.94
2022-11-30T07:01:20.615Z,98180.59
2022-11-30T07:03:50.583Z,98183.09
2022-11-30T07:06:19.715Z,98176.03
2022-11-30T07:08:48.565Z,98181.06
2022-11-30T07:11:17.457Z,98177.28
2022-11-30T07:13:46.479Z,98172.72
2022-11-30T07:16:15.411Z,98178.53
2022-11-30T07:18:44.371Z,98155.53
2022-11-30T07:21:13.308Z,98177.06
2022-11-30T07:24:00.561Z,98183.66
2022-11-30T07:26:30.214Z,98181.50
2022-11-30T07:28:59.176Z,98178.63
2022-11-30T07:31:31.540Z,98179.97
2022-11-30T07:34:05.701Z,98171.41
2022-11-30T07:36:35.981Z,98179.56
2022-11-30T07:39:05.457Z,98176.34
2022-11-30T07:41:35.155Z,98164.91
2022-11-30T07:44:06.414Z,98168.06
2022-11-30T07:46:37.646Z,98160.44
2022-11-30T07:49:09.466Z,98156.81
2022-11-30T07:51:39.159Z,98160.50
2022-11-30T07:54:08.060Z,98156.03
2022-11-30T07:56:37.072Z,98151.31
2022-11-30T07:59:06.152Z,98145.75
2022-11-30T08:01:35.484Z,98130.94
2022-11-30T08:04:04.966Z,98144.81
2022-11-30T08:06:34.488Z,98151.47
2022-11-30T08:09:05.407Z,98152.31
2022-11-30T08:11:36.144Z,98146.09
2022-11-30T08:14:05.444Z,98146.50
2022-11-30T08:16:38.645Z,98137.41
2022-11-30T08:19:07.582Z,98139.34
2022-11-30T08:21:38.747Z,98138.25
2022-11-30T08:24:11.284Z,98140.97
2022-11-30T08:26:40.340Z,98131.22
2022-11-30T08:29:14.079Z,98126.22
2022-11-30T08:31:43.173Z,98134.75
2022-11-30T08:34:13.848Z,98123.22
2022-11-30T08:36:47.088Z,98116.03
2022-11-30T08:39:19.289Z,98121.09
2022-11-30T08:41:48.152Z,98121.91
2022-11-30T08:44:17.177Z,98112.03
2022-11-30T08:46:53.194Z,98117.69
2022-11-30T08:49:25.016Z,98115.28
2022-11-30T08:54:47.763Z,98108.94
2022-11-30T08:57:19.693Z,98118.72
2022-11-30T08:59:49.080Z,98105.00
2022-11-30T09:02:20.559Z,98114.50
2022-11-30T09:04:51.902Z,98109.09
2022-11-30T09:07:20.857Z,98088.31
2022-11-30T09:09:49.823Z,98103.66
2022-11-30T09:12:18.695Z,98102.44
2022-11-30T09:14:55.846Z,98111.25
2022-11-30T09:17:27.063Z,98097.56
2022-11-30T09:19:56.604Z,98091.06
2022-11-30T09:22:25.816Z,98093.34
2022-11-30T09:24:55.312Z,98083.19
2022-11-30T09:27:25.505Z,98084.28
2022-11-30T09:29:54.304Z,98089.03
2022-11-30T09:32:23.214Z,98082.13
2022-11-30T09:34:53.743Z,98089.72
2022-11-30T09:37:24.336Z,98071.81
2022-11-30T09:39:53.337Z,98078.97
2022-11-30T09:42:34.591Z,98078.44
2022-11-30T09:45:31.174Z,98075.88
2022-11-30T09:48:20.167Z,98070.03
2022-11-30T09:50:51.060Z,98052.25
2022-11-30T09:53:29.634Z,98059.06
2022-11-30T09:56:01.275Z,98054.00
2022-11-30T09:58:40.716Z,98042.34
2022-11-30T10:01:21.918Z,98047.78
2022-11-30T10:03:51.247Z,98037.06
2022-11-30T10:06:44.901Z,98037.50
2022-11-30T10:10:09.425Z,98037.75
2022-11-30T10:13:12.525Z,98040.63
2022-11-30T10:15:55.051Z,98021.09
2022-11-30T10:19:02.565Z,98029.75
2022-11-30T10:21:45.219Z,98040.06
2022-11-30T10:24:35.784Z,98042.09
2022-11-30T10:27:36.666Z,98031.28
2022-11-30T10:30:14.949Z,98034.50
2022-11-30T10:32:48.471Z,98035.47
2022-11-30T10:35:36.295Z,98025.03
2022-11-30T10:38:23.679Z,98033.28
2022-11-30T10:41:05.088Z,98029.34
2022-11-30T10:43:41.396Z,98030.19
2022-11-30T10:46:23.377Z,98029.06
2022-11-30T10:48:57.359Z,98028.13
2022-11-30T10:51:28.128Z,98026.25
2022-11-30T10:53:59.137Z,98026.38
2022-11-30T10:56:28.410Z,98012.66
2022-11-30T10:59:20.796Z,98009.56
2022-11-30T11:01:50.528Z,98009.81
2022-11-30T11:04:21.259Z,97998.97
2022-11-30T11:07:12.023Z,98020.38
2022-11-30T11:09:51.881Z,98009.41
2022-11-30T11:12:28.976Z,98018.34
2022-11-30T11:15:27.377Z,98014.97
2022-11-30T11:18:21.943Z,98024.31
2022-11-30T11:21:06.121Z,98017.13
2022-11-30T11:23:41.546Z,98003.94
2022-11-30T11:26:26.320Z,97996.63
2022-11-30T11:28:57.523Z,98012.09
2022-11-30T11:31:37.784Z,97990.78
2022-11-30T11:34:25.328Z,98005.84
2022-11-30T11:37:17.347Z,98004.63
2022-11-30T11:40:05.044Z,98002.69
2022-11-30T11:42:43.641Z,97984.28
2022-11-30T11:45:31.523Z,97989.00
2022-11-30T11:48:03.009Z,97985.09
2022-11-30T11:53:50.045Z,97992.25
2022-11-30T11:56:33.192Z,97985.63
2022-11-30T11:59:13.942Z,97986.56
2022-11-30T12:01:51.505Z,97983.56
2022-11-30T12:04:54.176Z,97979.91
2022-11-30T12:07:36.530Z,97988.44
2022-11-30T12:10:59.757Z,97988.31
2022-11-30T12:13:43.496Z,97967.41
2022-11-30T12:16:49.776Z,97954.50
2022-11-30T12:19:30.112Z,97953.00
2022-11-30T12:22:19.887Z,97955.03
2022-11-30T12:25:22.119Z,97956.13
2022-11-30T12:28:26.262Z,97945.81
2022-11-30T12:31:11.296Z,97945.00
2022-11-30T12:33:40.240Z,97937.94
2022-11-30T12:36:17.843Z,97937.09
2022-11-30T12:38:59.501Z,97935.66
2022-11-30T12:41:51.560Z,97928.28
2022-11-30T12:44:41.808Z,97925.28
2022-11-30T12:47:24.041Z,97928.28
2022-11-30T12:50:09.292Z,97912.94
2022-11-30T12:52:42.457Z,97913.47
2022-11-30T12:55:25.403Z,97905.91
2022-11-30T12:58:13.378Z,97906.41
2022-11-30T13:00:56.764Z,97903.97
2022-11-30T13:03:43.365Z,97896.91
2022-11-30T13:06:15.611Z,97901.94
2022-11-30T13:08:57.802Z,97898.81
2022-11-30T13:11:36.224Z,97896.38
2022-11-30T13:14:19.903Z,97892.03
2022-11-30T13:17:05.303Z,97881.06
2022-11-30T13:19:46.105Z,97881.13
2022-11-30T13:22:46.208Z,97880.34
2022-11-30T13:26:06.721Z,97868.53
2022-11-30T13:28:36.230Z,97862.84
2022-11-30T13:31:05.713Z,97869.50
2022-11-30T13:33:35.489Z,97859.72
2022-11-30T13:36:23.796Z,97847.06
2022-11-30T13:39:26.498Z,97847.31
2022-11-30T13:42:37.662Z,97847.31
2022-11-30T13:45:16.331Z,97852.09
2022-11-30T13:47:58.429Z,97836.91
2022-11-30T13:50:40.871Z,97833.63
2022-11-30T13:53:12.631Z,97839.06
2022-11-30T13:55:50.575Z,97824.41
2022-11-30T13:58:21.557Z,97813.13
2022-11-30T14:01:37.668Z,97823.28
2022-11-30T14:04:16.615Z,97810.41
2022-11-30T14:06:53.866Z,97803.63
2022-11-30T14:09:41.209Z,97802.66
2022-11-30T14:12:35.444Z,97793.44
2022-11-30T14:15:34.717Z,97793.59
2022-11-30T14:18:08.512Z,97785.34
2022-11-30T14:20:58.563Z,97775.16
2022-11-30T14:23:58.667Z,97762.78
2022-11-30T14:26:38.787Z,97767.13
2022-11-30T14:29:19.735Z,97751.06
2022-11-30T14:31:58.334Z,97749.50
2022-11-30T14:34:35.125Z,97751.06
2022-11-30T14:37:14.624Z,97748.19
2022-11-30T14:39:46.311Z,97733.88
2022-11-30T14:42:24.861Z,97737.06
2022-11-30T14:44:54.513Z,97726.09
2022-11-30T14:47:36.014Z,97718.72
2022-11-30T14:50:06.823Z,97715.50
2022-11-30T14:52:51.820Z,97716.44
2022-11-30T14:55:45.363Z,97710.19
2022-11-30T14:58:34.554Z,97711.78
2022-11-30T15:01:19.015Z,97701.59
2022-11-30T15:03:50.541Z,97708.09
2022-11-30T15:06:21.798Z,97688.50
2022-11-30T15:08:55.090Z,97689.03
2022-11-30T15:11:25.752Z,97685.91
2022-11-30T15:13:58.176Z,97672.88
2022-11-30T15:16:31.381Z,97674.81
2022-11-30T15:19:00.882Z,97673.38
2022-11-30T15:21:33.189Z,97661.81
2022-11-30T15:24:03.011Z,97646.78
2022-11-30T15:27:07.134Z,97637.06
2022-11-30T15:30:06.823Z,97641.78
2022-11-30T15:32:35.564Z,97631.97
2022-11-30T15:35:05.672Z,97621.28
2022-11-30T15:37:41.749Z,97620.94
2022-11-30T15:40:15.843Z,97608.50
2022-11-30T15:42:50.138Z,97611.59
2022-11-30T15:45:39.563Z,97611.59
2022-11-30T15:48:39.031Z,97601.28
2022-11-30T15:51:23.165Z,97598.22
2022-11-30T15:53:53.789Z,97590.28
2022-11-30T15:56:28.791Z,97578.53
2022-11-30T15:59:22.764Z,97581.91
2022-11-30T16:02:09.506Z,97579.84
2022-11-30T16:04:57.547Z,97558.38
2022-11-30T16:07:54.105Z,97546.13
2022-11-30T16:10:31.088Z,97541.66
2022-11-30T16:12:59.940Z,97526.63
2022-11-30T16:16:43.223Z,97547.44
2022-11-30T16:19:13.603Z,97523.19
2022-11-30T17:44:17.487Z,97368.88
2022-11-30T17:46:48.317Z,97359.06
2022-11-30T17:49:17.595Z,97360.22
2022-11-30T17:51:47.387Z,97362.66
2022-11-30T17:54:16.429Z,97348.94
2022-11-30T17:56:45.459Z,97350.38
2022-11-30T17:59:14.274Z,97344.28
2022-11-30T18:01:43.758Z,97346.53
2022-11-30T18:04:14.114Z,97320.91
2022-11-30T18:06:42.956Z,97349.72
2022-11-30T18:09:12.376Z,97325.88
2022-11-30T18:11:41.476Z,97320.88
2022-11-30T18:14:10.271Z,97323.13
2022-11-30T18:16:39.818Z,97321.06
2022-11-30T18:19:12.857Z,97318.97
2022-11-30T18:21:44.755Z,97309.63
2022-11-30T18:24:14.036Z,97295.59
2022-11-30T18:26:42.923Z,97290.94
2022-11-30T18:29:13.294Z,97286.88
2022-11-30T18:31:42.052Z,97292.09
2022-11-30T18:34:12.419Z,97284.19
2022-11-30T18:36:41.313Z,97269.16
2022-11-30T18:39:10.357Z,97255.66
2022-11-30T18:41:39.289Z,97248.41
2022-11-30T18:44:09.761Z,97253.88
2022-11-30T18:46:39.271Z,97256.09
2022-11-30T18:49:08.230Z,97251.94
2022-11-30T18:51:38.185Z,97238.91
2022-11-30T18:54:10.664Z,97234.03
2022-11-30T18:56:40.103Z,97234.03
2022-11-30T18:59:13.966Z,97211.84
2022-11-30T19:01:43.990Z,97203.25
2022-11-30T19:04:13.253Z,97209.41
2022-11-30T19:06:43.493Z,97194.91
2022-11-30T19:09:14.942Z,97191.84
2022-11-30T19:11:44.302Z,97187.00
2022-11-30T19:14:15.392Z,97179.13
2022-11-30T19:16:45.369Z,97159.97
2022-11-30T19:19:15.725Z,97170.09
2022-11-30T19:21:48.334Z,97155.28
2022-11-30T19:24:17.735Z,97152.56
2022-11-30T19:26:46.886Z,97151.44
2022-11-30T19:29:16.228Z,97119.53
2022-11-30T19:31:45.335Z,97125.63
2022-11-30T19:34:14.783Z,97131.47
2022-11-30T19:36:44.410Z,97127.91
2022-11-30T19:39:13.769Z,97115.03
2022-11-30T19:41:42.677Z,97112.13
2022-11-30T19:44:15.375Z,97100.53
2022-11-30T19:46:46.243Z,97102.78
2022-11-30T19:49:15.139Z,97093.13
2022-11-30T19:51:44.631Z,97091.53
2022-11-30T19:54:13.394Z,97085.09
2022-11-30T19:56:43.807Z,97074.78
2022-11-30T19:59:12.724Z,97074.00
2022-11-30T20:01:42.644Z,97039.53
2022-11-30T20:04:11.803Z,97044.38
2022-11-30T20:06:40.675Z,97033.94
2022-11-30T20:09:12.088Z,97047.75
2022-11-30T20:11:42.363Z,97011.88
2022-11-30T20:14:17.067Z,97008.97
2022-11-30T20:16:47.966Z,97014.91
2022-11-30T20:19:17.862Z,97020.22
2022-11-30T20:21:48.854Z,97020.56
2022-11-30T20:24:17.667Z,96998.84
2022-11-30T20:26:47.302Z,96980.66
2022-11-30T20:29:18.135Z,96984.03
2022-11-30T20:31:48.828Z,96972.13
2022-11-30T20:34:18.339Z,96958.94
2022-11-30T20:36:47.373Z,96953.63
2022-11-30T20:39:17.239Z,96963.59
2022-11-30T20:41:46.048Z,96923.84
2022-11-30T20:44:17.228Z,96947.69
2022-11-30T20:46:46.175Z,96949.09
2022-11-30T20:49:21.804Z,96948.63
2022-11-30T20:51:50.746Z,96950.09
2022-11-30T20:54:19.810Z,96936.41
2022-11-30T20:56:51.136Z,96959.09
2022-11-30T20:59:25.160Z,96940.09
2022-11-30T21:01:56.555Z,96940.41
2022-11-30T21:04:26.662Z,96914.84
2022-11-30T21:06:55.575Z,96922.41
2022-11-30T21:09:24.415Z,96915.50
2022-11-30T21:11:53.361Z,96902.28
2022-11-30T21:14:22.748Z,96891.31
2022-11-30T21:16:51.579Z,96877.00
2022-11-30T21:19:20.655Z,96875.25
2022-11-30T21:21:49.594Z,96861.56
2022-11-30T21:24:19.149Z,96854.81
2022-11-30T21:26:48.653Z,96856.09
2022-11-30T21:29:19.618Z,96845.81
2022-11-30T21:31:48.659Z,96804.34
2022-11-30T21:34:17.758Z,96824.56
2022-11-30T21:36:46.719Z,96832.75
2022-11-30T21:39:16.840Z,96819.75
2022-11-30T21:41:45.677Z,96815.03
2022-11-30T21:44:16.651Z,96812.63
2022-11-30T21:46:47.231Z,96816.97
2022-11-30T21:49:17.248Z,96800.22
2022-11-30T21:51:46.572Z,96796.84
2022-11-30T21:54:16.265Z,96777.22
2022-11-30T21:56:46.458Z,96769.50
2022-11-30T21:59:15.758Z,96755.56
2022-11-30T22:01:46.561Z,96770.00
2022-11-30T22:04:16.811Z,96737.34
2022-11-30T22:06:48.061Z,96739.72
2022-11-30T22:09:18.341Z,96750.38
2022-11-30T22:11:47.694Z,96743.44
2022-11-30T22:14:17.766Z,96736.06
2022-11-30T22:16:47.163Z,96735.38
2022-11-30T22:19:17.460Z,96743.41
2022-11-30T22:21:50.002Z,96737.78
2022-11-30T22:24:19.410Z,96727.63
2022-11-30T22:26:49.756Z,96706.63
2022-11-30T22:29:21.147Z,96701.44
2022-11-30T22:31:52.842Z,96713.81
2022-11-30T22:34:22.166Z,96715.88
2022-11-30T22:36:51.393Z,96705.22
2022-11-30T22:39:22.528Z,96693.31
2022-11-30T22:41:55.565Z,96699.63
2022-11-30T22:44:26.505Z,96691.94
2022-11-30T22:46:55.677Z,96692.25
2022-11-30T22:49:25.399Z,96696.25
2022-11-30T22:51:54.322Z,96693.69
2022-11-30T22:54:23.115Z,96687.00
2022-11-30T22:56:51.965Z,96675.09
2022-11-30T22:59:21.324Z,96688.91
2022-11-30T23:01:52.553Z,96682.94
2022-11-30T23:04:25.989Z,96672.16
2022-11-30T23:06:56.298Z,96681.03
2022-11-30T23:09:25.283Z,96679.59
2022-11-30T23:11:54.471Z,96662.22
2022-11-30T23:14:23.585Z,96660.41
2022-11-30T23:16:52.518Z,96675.16
2022-11-30T23:19:21.423Z,96660.69
2022-11-30T23:21:50.886Z,96657.97
2022-11-30T23:24:21.402Z,96664.81
2022-11-30T23:26:51.488Z,96653.59
2022-11-30T23:29:20.295Z,96645.69
2022-11-30T23:31:50.363Z,96631.50
2022-11-30T23:34:22.787Z,96637.28
2022-11-30T23:36:52.059Z,96636.81
2022-11-30T23:39:21.884Z,96651.75
2022-11-30T23:41:50.935Z,96644.03
2022-11-30T23:44:19.863Z,96629.88
2022-11-30T23:46:48.969Z,96633.00
2022-11-30T23:49:17.855Z,96632.31
2022-11-30T23:51:46.706Z,96622.44
2022-11-30T23:54:15.582Z,96626.97
2022-11-30T23:56:44.490Z,96625.19
2022-11-30T23:59:13.411Z,96611.84
